Terminal Aerodrome Forecast
Issued by NWS

Home | Current Version | Previous Version | Graphics & Text | Print | Product List | Glossary On
Versions: 1 2 3 4 5 6 7 8 9 10 11 12 13 14 15 16 17 18
483
FTUS43 KBIS 191528 AAB
TAFMOT
TAF AMD
KMOT 191528Z 1915/2012 13017G23KT P6SM BKN013 OVC110 WS020/14040KT
     FM191700 13013G21KT P6SM OVC070
     FM192000 21011KT P6SM OVC080
     FM200000 25011KT P6SM BKN100
     FM200600 25010KT P6SM BKN060=

USA.gov is the U.S. government's official web portal to all federal, state and local government web resources and services.